Terminal Aerodrome Forecast
Issued by NWS

Home | Current Version | Previous Version | Text Only | Print | Product List | Glossary On
Versions: 1 2 3 4 5 6 7 8 9 10 11 12 13 14 15 16 17 18 19 20 21 22
000
FTUS43 KLSX 300200 AAA
TAFSUS
TAF AMD
KSUS 300224Z 3002/3024 17006KT P6SM VCTS SCT050CB BKN080
     FM300300 17007KT 5SM -TSRA BR BKN040CB
      TEMPO 3004/3006 2SM +TSRA OVC020CB
     FM301000 20008KT 5SM -SHRA BR OVC015
     FM301800 30012KT P6SM OVC015=

USA.gov is the U.S. government's official web portal to all federal, state and local government web resources and services.